Time;durP1;ratioP1;P1;durP2;ratioP2;P2;SDS_P1;SDS_P2;PMS_P1;PMS_P2;Temp;Humidity;BMP_temperature;BMP_pressure;BME280_temperature;BME280_humidity;BME280_pressure;Samples;Min_cycle;Max_cycle;Signal;HPM_P1;HPM_P2
2023/01/07 00:01:37;;;;;;;24.42;12.60;;;;;;;4.98;nan;95773.63;4961474;28;21169;-70
2023/01/07 00:04:06;;;;;;;26.02;14.02;;;;;;;5.01;nan;95786.22;4960375;28;20244;-70
2023/01/07 00:06:35;;;;;;;29.65;13.73;;;;;;;5.00;nan;95787.06;4960337;28;20220;-69
2023/01/07 00:09:03;;;;;;;24.70;14.23;;;;;;;4.92;nan;95779.53;4960173;28;20436;-69
2023/01/07 00:11:33;;;;;;;30.70;15.90;;;;;;;4.83;nan;95778.66;4961415;28;20350;-69
2023/01/07 00:14:04;;;;;;;29.65;15.00;;;;;;;4.82;nan;95787.91;4960619;28;20272;-69
2023/01/07 00:16:32;;;;;;;36.92;15.82;;;;;;;4.56;nan;95785.38;4959921;28;20239;-69
2023/01/07 00:19:01;;;;;;;31.92;14.68;;;;;;;4.59;nan;95787.06;4961219;28;21167;-69
2023/01/07 00:21:29;;;;;;;30.02;13.93;;;;;;;4.47;nan;95790.38;4960762;28;20543;-69
2023/01/07 00:23:57;;;;;;;29.17;14.15;;;;;;;4.30;nan;95784.47;4960857;28;20204;-71
2023/01/07 00:26:26;;;;;;;28.30;14.25;;;;;;;4.26;nan;95780.28;4961269;28;20331;-69
2023/01/07 00:28:54;;;;;;;28.77;12.75;;;;;;;4.29;nan;95786.16;4959126;28;20271;-69
2023/01/07 00:31:23;;;;;;;22.33;11.53;;;;;;;4.26;nan;95785.31;4960589;28;20213;-70
2023/01/07 00:34:05;;;;;;;18.42;10.98;;;;;;;4.44;nan;95790.41;4959629;28;20212;-70
2023/01/07 00:36:34;;;;;;;22.48;11.27;;;;;;;4.35;nan;95788.69;4960016;28;21117;-70
2023/01/07 00:39:03;;;;;;;13.68;9.52;;;;;;;4.18;nan;95765.19;4959175;28;20213;-70
2023/01/07 00:41:30;;;;;;;17.88;9.05;;;;;;;4.28;nan;95788.66;4959906;28;20607;-70
2023/01/07 00:43:57;;;;;;;14.35;9.40;;;;;;;4.30;nan;95777.78;4960457;28;20781;-71
2023/01/07 00:46:25;;;;;;;16.67;10.20;;;;;;;4.33;nan;95781.97;4959305;28;20315;-70
2023/01/07 00:48:52;;;;;;;20.60;9.00;;;;;;;4.36;nan;95797.09;4960847;28;20208;-71
2023/01/07 00:51:19;;;;;;;16.67;9.45;;;;;;;4.22;nan;95799.56;4960840;28;20205;-72
2023/01/07 00:53:46;;;;;;;24.38;10.68;;;;;;;4.25;nan;95798.72;4959464;28;20219;-70
2023/01/07 00:56:14;;;;;;;19.20;11.40;;;;;;;4.28;nan;95793.69;4960307;28;20216;-71
2023/01/07 00:58:41;;;;;;;18.63;10.50;;;;;;;4.24;nan;95799.56;4960044;28;20248;-70
2023/01/07 01:01:10;;;;;;;23.58;11.43;;;;;;;4.20;nan;95800.41;4960597;28;21003;-70
2023/01/07 01:03:39;;;;;;;24.15;11.73;;;;;;;4.15;nan;95802.06;4960269;28;20241;-70
2023/01/07 01:06:08;;;;;;;18.65;11.32;;;;;;;4.22;nan;95796.19;4961234;28;20330;-70
2023/01/07 01:08:35;;;;;;;22.75;12.38;;;;;;;4.17;nan;95810.47;4962110;28;20868;-70
2023/01/07 01:11:05;;;;;;;15.43;10.57;;;;;;;4.03;nan;95808.72;4959589;28;20201;-69
2023/01/07 01:13:33;;;;;;;22.40;11.70;;;;;;;4.04;nan;95815.44;4960157;28;20248;-70
2023/01/07 01:16:00;;;;;;;17.20;10.97;;;;;;;3.88;nan;95802.81;4960357;28;20205;-70
2023/01/07 01:18:27;;;;;;;20.47;11.90;;;;;;;3.88;nan;95806.16;4966311;28;20205;-69
2023/01/07 01:20:55;;;;;;;20.77;11.13;;;;;;;3.90;nan;95817.06;4963744;28;20714;-70
2023/01/07 01:23:22;;;;;;;23.70;11.70;;;;;;;3.70;nan;95796.03;4963806;28;20208;-70
2023/01/07 01:25:49;;;;;;;16.17;10.65;;;;;;;3.94;nan;95817.94;4963388;28;20750;-70
2023/01/07 01:28:15;;;;;;;25.70;11.48;;;;;;;3.84;nan;95806.13;4965110;28;20222;-69
2023/01/07 01:30:42;;;;;;;19.50;11.70;;;;;;;3.78;nan;95811.97;4961987;28;20201;-71
2023/01/07 01:33:09;;;;;;;19.50;10.40;;;;;;;3.88;nan;95808.69;4964325;28;20209;-71
2023/01/07 01:35:40;;;;;;;17.10;9.80;;;;;;;3.84;nan;95809.50;4963185;28;20215;-71
2023/01/07 01:38:08;;;;;;;16.77;7.93;;;;;;;4.05;nan;95806.22;4963235;28;20208;-70
2023/01/07 01:40:34;;;;;;;16.65;7.80;;;;;;;4.22;nan;95808.78;4962137;28;20275;-70
2023/01/07 01:43:04;;;;;;;12.60;8.90;;;;;;;4.06;nan;95813.78;4962564;28;20287;-70
2023/01/07 01:45:30;;;;;;;16.13;9.73;;;;;;;4.02;nan;95807.03;4963954;28;20209;-70
2023/01/07 01:48:01;;;;;;;14.35;8.52;;;;;;;4.15;nan;95805.44;4962972;28;20758;-71
2023/01/07 01:50:33;;;;;;;18.10;10.00;;;;;;;4.19;nan;95796.22;4963007;28;20647;-71
2023/01/07 01:53:04;;;;;;;18.98;9.57;;;;;;;4.16;nan;95803.75;4962974;28;20359;-71
2023/01/07 01:55:36;;;;;;;13.00;8.48;;;;;;;4.21;nan;95809.59;4963446;28;20212;-71
2023/01/07 01:58:06;;;;;;;13.70;8.27;;;;;;;4.20;nan;95807.97;4963577;28;20231;-70
2023/01/07 02:00:34;;;;;;;13.32;9.10;;;;;;;4.18;nan;95792.03;4961863;28;20229;-70
2023/01/07 02:03:01;;;;;;;16.63;8.88;;;;;;;4.11;nan;95796.19;4961676;28;20204;-70
2023/01/07 02:05:32;;;;;;;16.15;9.75;;;;;;;4.11;nan;95791.16;4963847;28;20334;-70
2023/01/07 02:08:00;;;;;;;16.40;10.27;;;;;;;4.14;nan;95787.81;4962323;28;20209;-70
2023/01/07 02:10:27;;;;;;;14.40;9.80;;;;;;;4.15;nan;95781.94;4963172;28;20205;-70
2023/01/07 02:13:11;;;;;;;16.00;8.63;;;;;;;4.07;nan;95795.31;4963807;28;20263;-68
2023/01/07 02:15:47;;;;;;;19.40;9.38;;;;;;;4.27;nan;95797.91;4962247;28;20717;-70
2023/01/07 02:18:31;;;;;;;18.65;9.70;;;;;;;4.16;nan;95789.50;4962894;28;20208;-69
2023/01/07 02:21:11;;;;;;;14.60;9.20;;;;;;;4.10;nan;95790.31;4963684;28;20312;-71
2023/01/07 02:24:25;;;;;;;17.65;8.95;;;;;;;4.29;nan;95787.84;4962413;28;20212;-70
2023/01/07 02:27:14;;;;;;;17.53;9.10;;;;;;;4.39;nan;95787.03;4856944;29;20299;-69
2023/01/07 02:30:13;;;;;;;14.23;9.18;;;;;;;4.28;nan;95787.00;4961862;28;20216;-69
2023/01/07 02:33:05;;;;;;;13.97;11.13;;;;;;;4.28;nan;95783.63;4961860;28;20610;-71
2023/01/07 02:35:54;;;;;;;19.10;9.23;;;;;;;4.21;nan;95792.00;4963193;28;20589;-69
2023/01/07 02:38:32;;;;;;;17.63;9.18;;;;;;;4.10;nan;95797.84;4925631;28;20926;-70
2023/01/07 02:41:10;;;;;;;16.30;9.65;;;;;;;4.07;nan;95791.97;4961575;28;20605;-69
2023/01/07 02:43:48;;;;;;;18.80;10.82;;;;;;;4.06;nan;95788.63;4960499;28;20228;-70
2023/01/07 02:46:21;;;;;;;21.13;10.60;;;;;;;3.97;nan;95793.59;4961581;28;21279;-70
2023/01/07 02:48:51;;;;;;;26.08;12.25;;;;;;;3.84;nan;95796.94;4962697;28;20232;-70
2023/01/07 02:51:18;;;;;;;21.15;9.40;;;;;;;3.80;nan;95796.91;4962631;28;20213;-71
2023/01/07 02:53:48;;;;;;;23.05;9.38;;;;;;;3.84;nan;95794.41;4961337;28;20843;-72
2023/01/07 02:56:25;;;;;;;15.95;9.85;;;;;;;3.92;nan;95789.41;4960923;28;21202;-68
2023/01/07 02:59:18;;;;;;;11.48;9.00;;;;;;;3.86;nan;95797.78;4961002;28;20631;-69
2023/01/07 03:02:09;;;;;;;18.83;10.07;;;;;;;3.78;nan;95796.06;4962025;28;20273;-69
2023/01/07 03:04:49;;;;;;;23.08;13.00;;;;;;;3.64;nan;95783.44;4961456;28;20223;-71
2023/01/07 03:07:29;;;;;;;18.73;9.30;;;;;;;3.62;nan;95790.13;4961983;28;20223;-70
2023/01/07 03:10:03;;;;;;;14.57;8.70;;;;;;;3.75;nan;95794.34;4962269;28;20758;-70
2023/01/07 03:12:34;;;;;;;14.55;8.07;;;;;;;3.71;nan;95795.22;4961552;28;20662;-69
2023/01/07 03:15:09;;;;;;;12.95;8.85;;;;;;;3.68;nan;95796.03;4961123;28;20490;-70
2023/01/07 03:17:41;;;;;;;12.38;8.85;;;;;;;3.51;nan;95781.69;4962339;28;20208;-70
2023/01/07 03:20:13;;;;;;;14.82;8.30;;;;;;;3.57;nan;95796.78;4963056;28;20212;-71
2023/01/07 03:22:43;;;;;;;12.40;7.95;;;;;;;3.60;nan;95797.66;4960082;28;21328;-70
2023/01/07 03:25:12;;;;;;;16.90;9.50;;;;;;;3.48;nan;95801.75;4962717;28;20303;-71
2023/01/07 03:27:41;;;;;;;17.55;9.82;;;;;;;3.35;nan;95804.22;4961346;28;20290;-70
2023/01/07 03:30:12;;;;;;;17.35;10.10;;;;;;;3.34;nan;95804.22;4961141;28;20625;-70
2023/01/07 03:32:43;;;;;;;14.60;10.15;;;;;;;3.20;nan;95791.56;4961066;28;20992;-70
2023/01/07 03:35:11;;;;;;;16.30;10.73;;;;;;;3.17;nan;95790.72;4961891;28;20680;-70
2023/01/07 03:37:41;;;;;;;16.98;10.20;;;;;;;3.24;nan;95794.91;4962153;28;20587;-69
2023/01/07 03:40:11;;;;;;;14.30;9.60;;;;;;;3.24;nan;95795.75;4961343;28;20290;-71
2023/01/07 03:42:39;;;;;;;18.75;10.55;;;;;;;3.48;nan;95800.09;4960966;28;20345;-71
2023/01/07 03:45:08;;;;;;;24.05;12.77;;;;;;;3.51;nan;95794.25;4960376;28;20215;-70
2023/01/07 03:47:36;;;;;;;19.95;12.05;;;;;;;3.50;nan;95795.06;4958982;28;20208;-69
2023/01/07 03:50:03;;;;;;;17.48;10.73;;;;;;;3.45;nan;95797.59;4961516;28;20212;-71
2023/01/07 03:52:31;;;;;;;20.45;10.90;;;;;;;3.62;nan;95785.94;4961109;28;20209;-72
2023/01/07 03:54:58;;;;;;;20.98;11.77;;;;;;;3.80;nan;95805.28;4960755;28;20644;-70
2023/01/07 03:57:25;;;;;;;22.98;10.48;;;;;;;3.96;nan;95804.50;4959388;28;20209;-70
2023/01/07 03:59:51;;;;;;;25.20;11.63;;;;;;;3.99;nan;95807.03;4962437;28;21515;-70
2023/01/07 04:02:18;;;;;;;20.65;11.02;;;;;;;3.68;nan;95800.22;4966112;28;20229;-70
2023/01/07 04:04:45;;;;;;;21.13;11.80;;;;;;;3.86;nan;95805.31;4965681;28;20209;-69
2023/01/07 04:07:12;;;;;;;23.70;12.90;;;;;;;3.90;nan;95809.53;4962606;28;20212;-69
2023/01/07 04:09:40;;;;;;;23.80;13.05;;;;;;;4.05;nan;95814.59;4962107;28;20201;-69
2023/01/07 04:12:07;;;;;;;20.70;11.85;;;;;;;4.27;nan;95819.69;5062894;22;20229;-70
2023/01/07 04:14:34;;;;;;;21.15;11.98;;;;;;;4.34;nan;95819.72;5062797;28;20213;-68
2023/01/07 04:17:01;;;;;;;20.23;12.32;;;;;;;4.37;nan;95816.38;5064494;28;20204;-69
2023/01/07 04:19:27;;;;;;;18.08;12.20;;;;;;;4.40;nan;95819.75;5065936;28;20285;-69
2023/01/07 04:21:54;;;;;;;21.05;11.45;;;;;;;4.41;nan;95825.63;5061986;28;20961;-69
2023/01/07 04:24:21;;;;;;;18.17;11.00;;;;;;;4.51;nan;95819.75;5063432;28;20205;-70
2023/01/07 04:26:49;;;;;;;17.73;11.27;;;;;;;4.56;nan;95830.69;5064084;28;20220;-71
2023/01/07 04:29:16;;;;;;;21.48;10.45;;;;;;;4.51;nan;95826.47;5063881;28;20565;-70
2023/01/07 04:31:42;;;;;;;19.95;10.18;;;;;;;4.54;nan;95819.75;5063411;28;20202;-70
2023/01/07 04:34:09;;;;;;;16.92;10.20;;;;;;;4.66;nan;95826.50;5063300;28;20760;-68
2023/01/07 04:36:36;;;;;;;14.38;10.57;;;;;;;4.77;nan;95825.66;5064585;28;20741;-69
2023/01/07 04:39:03;;;;;;;11.40;9.77;;;;;;;4.86;nan;95829.03;5063281;28;20236;-69
2023/01/07 04:41:30;;;;;;;15.60;10.27;;;;;;;4.94;nan;95832.41;5063004;28;20236;-68
2023/01/07 04:43:58;;;;;;;18.20;9.75;;;;;;;4.92;nan;95826.53;5063698;28;20566;-68
2023/01/07 04:46:25;;;;;;;19.10;9.43;;;;;;;4.96;nan;95825.66;5063593;28;20630;-69
2023/01/07 04:48:52;;;;;;;14.07;9.93;;;;;;;4.65;nan;95835.75;5064534;28;20214;-73
2023/01/07 04:51:19;;;;;;;16.50;9.43;;;;;;;4.60;nan;95834.88;5063290;28;20201;-69
2023/01/07 04:53:45;;;;;;;18.58;10.40;;;;;;;4.67;nan;95831.56;5063835;28;20221;-68
2023/01/07 04:56:12;;;;;;;19.88;10.85;;;;;;;4.28;nan;95804.59;5064114;28;20209;-69
2023/01/07 04:58:39;;;;;;;16.02;10.80;;;;;;;4.45;nan;95817.25;5064282;28;20206;-70
2023/01/07 05:01:07;;;;;;;18.27;10.02;;;;;;;4.65;nan;95843.28;5064012;28;20220;-70
2023/01/07 05:03:34;;;;;;;14.63;9.68;;;;;;;4.77;nan;95845.81;5063988;28;20638;-68
2023/01/07 05:06:01;;;;;;;16.77;10.38;;;;;;;4.87;nan;95840.78;5062974;28;20201;-69
2023/01/07 05:08:28;;;;;;;18.30;11.85;;;;;;;4.75;nan;95829.84;5063183;28;20232;-69
2023/01/07 05:10:55;;;;;;;18.98;9.35;;;;;;;4.63;nan;95824.81;5063738;28;20240;-69
2023/01/07 05:13:24;;;;;;;18.10;9.80;;;;;;;4.29;nan;95811.31;5064599;28;20749;-71
2023/01/07 05:15:50;;;;;;;15.05;9.73;;;;;;;4.34;nan;95831.47;5063697;28;20232;-70
2023/01/07 05:18:19;;;;;;;19.63;9.38;;;;;;;4.44;nan;95840.75;5063781;28;20201;-69
2023/01/07 05:20:46;;;;;;;17.23;9.20;;;;;;;4.41;nan;95843.25;5063682;28;20212;-70
2023/01/07 05:23:13;;;;;;;14.13;8.55;;;;;;;4.28;nan;95839.84;5064093;28;20232;-70
2023/01/07 05:25:39;;;;;;;11.05;9.02;;;;;;;4.19;nan;95844.84;5062603;28;20212;-70
2023/01/07 05:28:06;;;;;;;15.30;10.60;;;;;;;4.14;nan;95849.03;5062799;28;20550;-71
2023/01/07 05:30:33;;;;;;;16.17;11.10;;;;;;;4.02;nan;95849.81;5063372;28;20935;-70
2023/01/07 05:33:00;;;;;;;14.60;10.68;;;;;;;3.95;nan;95850.63;5062759;28;20521;-69
2023/01/07 05:35:28;;;;;;;19.27;10.85;;;;;;;3.80;nan;95854.72;5063965;28;20264;-69
2023/01/07 05:37:54;;;;;;;17.08;11.13;;;;;;;3.75;nan;95852.19;5062902;28;20217;-69
2023/01/07 05:40:21;;;;;;;17.17;10.30;;;;;;;3.78;nan;95859.75;5062618;28;21776;-71
2023/01/07 05:42:48;;;;;;;18.35;9.73;;;;;;;3.78;nan;95859.75;5063225;28;20236;-68
2023/01/07 05:45:14;;;;;;;18.52;10.27;;;;;;;3.86;nan;95854.75;5064966;28;20232;-69
2023/01/07 05:47:42;;;;;;;16.40;9.65;;;;;;;3.86;nan;95853.09;5064028;28;20235;-69
2023/01/07 05:50:09;;;;;;;14.20;10.48;;;;;;;3.86;nan;95842.19;5063147;28;20208;-69
2023/01/07 05:52:37;;;;;;;17.35;10.25;;;;;;;3.67;nan;95853.84;5062885;28;20201;-68
2023/01/07 05:55:05;;;;;;;13.93;10.32;;;;;;;3.65;nan;95861.38;5063526;28;20202;-69
2023/01/07 05:57:32;;;;;;;22.63;12.07;;;;;;;3.56;nan;95830.28;5063160;28;20991;-69
2023/01/07 05:59:59;;;;;;;32.63;18.47;;;;;;;3.73;nan;95853.84;5063594;28;20243;-70
2023/01/07 06:02:25;;;;;;;25.75;14.18;;;;;;;3.69;nan;95859.72;5064362;28;20222;-69
2023/01/07 06:04:52;;;;;;;23.73;12.60;;;;;;;3.65;nan;95858.84;5066622;28;20793;-71
2023/01/07 06:07:19;;;;;;;17.37;11.20;;;;;;;3.72;nan;95862.22;5067958;28;20661;-68
2023/01/07 06:09:47;;;;;;;18.65;10.75;;;;;;;3.84;nan;95871.50;5066469;28;20213;-69
2023/01/07 06:12:14;;;;;;;14.77;9.88;;;;;;;4.06;nan;95864.06;5066770;28;20330;-69
2023/01/07 06:14:40;;;;;;;12.83;9.57;;;;;;;4.42;nan;95858.34;5066286;28;20212;-69
2023/01/07 06:17:07;;;;;;;17.67;10.55;;;;;;;5.11;nan;95866.84;5067153;28;20228;-69
2023/01/07 06:19:34;;;;;;;16.15;9.73;;;;;;;5.53;nan;95860.09;5067475;28;20207;-70
2023/01/07 06:22:00;;;;;;;18.27;10.07;;;;;;;5.44;nan;95845.81;5066033;28;20222;-68
2023/01/07 06:24:27;;;;;;;20.65;10.57;;;;;;;5.48;nan;95861.78;5066376;28;20259;-69
2023/01/07 06:26:55;;;;;;;21.55;13.15;;;;;;;5.44;nan;95865.16;5067179;28;20649;-71
2023/01/07 06:29:22;;;;;;;33.15;17.85;;;;;;;5.33;nan;95860.13;5066651;28;20255;-69
2023/01/07 06:31:49;;;;;;;24.48;15.13;;;;;;;5.48;nan;95866.81;5066297;28;20201;-69
2023/01/07 06:34:16;;;;;;;27.65;15.65;;;;;;;5.61;nan;95870.16;5067291;28;20209;-71
2023/01/07 06:36:42;;;;;;;29.80;15.75;;;;;;;5.61;nan;95867.66;5067169;28;20205;-72
2023/01/07 06:39:09;;;;;;;25.52;15.02;;;;;;;5.80;nan;95869.28;5066597;28;20209;-69
2023/01/07 06:41:36;;;;;;;23.15;15.02;;;;;;;5.98;nan;95865.91;5065828;28;20198;-70
2023/01/07 06:44:04;;;;;;;25.30;14.55;;;;;;;5.97;nan;95870.09;5065239;28;20731;-71
2023/01/07 06:46:31;;;;;;;27.15;13.40;;;;;;;5.93;nan;95865.09;5064877;28;20249;-71
2023/01/07 06:48:58;;;;;;;23.52;13.52;;;;;;;5.83;nan;95859.19;5065774;28;20202;-72
2023/01/07 06:51:24;;;;;;;23.38;12.85;;;;;;;5.91;nan;95871.84;5066071;28;20317;-71
2023/01/07 06:53:51;;;;;;;27.35;14.57;;;;;;;6.08;nan;95870.94;5065095;28;20194;-70
2023/01/07 06:56:18;;;;;;;22.33;14.40;;;;;;;6.37;nan;95867.44;5064309;28;20205;-70
2023/01/07 06:58:45;;;;;;;26.30;15.30;;;;;;;6.70;nan;95877.38;5066024;28;20208;-70
2023/01/07 07:01:13;;;;;;;25.13;14.57;;;;;;;6.97;nan;95875.53;5065699;28;20198;-71
2023/01/07 07:03:40;;;;;;;28.60;15.55;;;;;;;7.21;nan;95869.44;5065173;28;20253;-69
2023/01/07 07:06:07;;;;;;;20.05;13.23;;;;;;;7.43;nan;95874.31;5066304;28;21317;-70
2023/01/07 07:08:33;;;;;;;22.95;12.20;;;;;;;7.63;nan;95880.91;5066206;28;20210;-70
2023/01/07 07:11:00;;;;;;;36.88;18.23;;;;;;;7.80;nan;95884.97;5065482;28;20237;-69
2023/01/07 07:13:27;;;;;;;32.42;19.13;;;;;;;8.03;nan;95882.19;5064667;28;20710;-69
2023/01/07 07:15:54;;;;;;;29.02;18.48;;;;;;;8.76;nan;95871.19;5065557;28;20258;-67
2023/01/07 07:18:22;;;;;;;36.47;20.27;;;;;;;11.26;nan;95858.97;5065749;28;20232;-69
2023/01/07 07:20:49;;;;;;;44.55;23.95;;;;;;;14.55;nan;95855.09;5065893;28;20674;-68
2023/01/07 07:23:15;;;;;;;44.35;25.90;;;;;;;16.87;nan;95856.66;5065244;28;20229;-68
2023/01/07 07:25:43;;;;;;;37.55;24.42;;;;;;;18.55;nan;95858.75;5064172;28;20271;-68
2023/01/07 07:28:09;;;;;;;34.95;21.55;;;;;;;19.44;nan;95854.81;5065073;28;20202;-69
2023/01/07 07:30:37;;;;;;;29.83;18.85;;;;;;;19.63;nan;95866.63;5064715;28;20217;-69
2023/01/07 07:33:04;;;;;;;20.58;14.32;;;;;;;20.26;nan;95860.44;5064765;28;20251;-69
2023/01/07 07:35:32;;;;;;;19.08;12.88;;;;;;;20.16;nan;95854.13;5064757;28;20220;-69
2023/01/07 07:37:59;;;;;;;22.38;14.82;;;;;;;18.98;nan;95853.03;5064563;28;20202;-69
2023/01/07 07:40:26;;;;;;;19.48;13.27;;;;;;;17.59;nan;95859.25;5065122;28;21440;-70
2023/01/07 07:42:53;;;;;;;21.17;14.48;;;;;;;16.04;nan;95862.91;5065303;28;20222;-70
2023/01/07 07:45:19;;;;;;;15.38;12.68;;;;;;;15.19;nan;95867.19;5064580;28;20202;-70
2023/01/07 07:47:46;;;;;;;27.50;17.17;;;;;;;14.68;nan;95863.13;5064560;28;20221;-69
2023/01/07 07:50:13;;;;;;;25.60;16.17;;;;;;;14.80;nan;95864.41;5064825;28;20909;-70
2023/01/07 07:52:41;;;;;;;18.88;13.40;;;;;;;14.69;nan;95859.69;5065987;28;20629;-70
2023/01/07 07:55:09;;;;;;;18.88;12.75;;;;;;;14.31;nan;95866.16;5064202;28;20213;-69
2023/01/07 07:57:35;;;;;;;20.65;12.63;;;;;;;14.46;nan;95865.63;5062329;28;20206;-69
2023/01/07 08:00:02;;;;;;;24.67;13.30;;;;;;;14.94;nan;95860.44;5062202;28;20263;-68
2023/01/07 08:02:29;;;;;;;16.23;14.27;;;;;;;14.96;nan;95856.09;5064320;28;20283;-69
2023/01/07 08:04:56;;;;;;;17.85;13.88;;;;;;;14.89;nan;95864.88;5062909;28;20274;-69
2023/01/07 08:07:23;;;;;;;22.20;15.23;;;;;;;14.96;nan;95856.09;5065053;28;20518;-69
2023/01/07 08:09:51;;;;;;;22.58;14.10;;;;;;;15.12;nan;95852.94;5063628;28;20240;-69
2023/01/07 08:12:17;;;;;;;27.60;14.90;;;;;;;15.23;nan;95867.00;5065121;28;20237;-69
2023/01/07 08:14:44;;;;;;;21.20;13.27;;;;;;;15.57;nan;95863.16;5063941;28;20642;-69
2023/01/07 08:17:11;;;;;;;29.08;16.58;;;;;;;15.82;nan;95855.28;5065484;28;20696;-69
2023/01/07 08:19:38;;;;;;;63.70;34.40;;;;;;;15.94;nan;95854.75;5064866;28;20224;-70
2023/01/07 08:22:05;;;;;;;29.83;19.35;;;;;;;15.90;nan;95854.06;5063664;28;20856;-68
2023/01/07 08:24:31;;;;;;;29.92;18.88;;;;;;;15.55;nan;95860.63;5064521;28;20221;-69
2023/01/07 08:26:59;;;;;;;28.98;16.55;;;;;;;14.86;nan;95864.16;5063523;28;20205;-69
2023/01/07 08:29:26;;;;;;;32.00;17.60;;;;;;;14.18;nan;95864.91;5064113;28;20206;-70
2023/01/07 08:31:53;;;;;;;32.05;16.98;;;;;;;13.63;nan;95865.03;5063779;28;20267;-68
2023/01/07 08:34:20;;;;;;;30.67;16.92;;;;;;;13.38;nan;95856.50;5063494;28;20201;-71
2023/01/07 08:36:46;;;;;;;26.20;16.50;;;;;;;13.05;nan;95865.19;5062271;28;20202;-68
2023/01/07 08:39:13;;;;;;;26.73;15.43;;;;;;;12.85;nan;95860.69;5064123;28;20721;-68
2023/01/07 08:41:41;;;;;;;35.15;17.48;;;;;;;12.68;nan;95863.72;5062853;28;20207;-67
2023/01/07 08:44:09;;;;;;;22.25;14.00;;;;;;;12.32;nan;95865.63;5062955;28;20222;-70
2023/01/07 08:46:36;;;;;;;35.17;17.35;;;;;;;12.14;nan;95866.09;5056495;28;20209;-69
2023/01/07 08:49:03;;;;;;;28.08;15.55;;;;;;;12.21;nan;95863.34;5080610;28;20212;-70
2023/01/07 08:51:30;;;;;;;20.67;14.93;;;;;;;12.33;nan;95861.34;5080724;28;20258;-70
2023/01/07 08:53:57;;;;;;;22.73;14.82;;;;;;;12.54;nan;95860.75;5080427;28;20209;-69
2023/01/07 08:56:23;;;;;;;37.17;21.23;;;;;;;12.68;nan;95852.69;5080945;28;20600;-69
2023/01/07 08:58:50;;;;;;;28.25;19.15;;;;;;;12.73;nan;95853.38;5081146;28;20209;-67
2023/01/07 09:01:18;;;;;;;24.27;15.85;;;;;;;12.72;nan;95850.00;5082047;28;20914;-69
2023/01/07 09:03:45;;;;;;;23.42;15.73;;;;;;;12.61;nan;95857.16;5080010;28;20233;-68
2023/01/07 09:06:12;;;;;;;23.58;16.00;;;;;;;12.57;nan;95845.38;5078436;28;20205;-70
2023/01/07 09:08:39;;;;;;;20.50;14.25;;;;;;;12.77;nan;95845.59;5081801;28;20262;-69
2023/01/07 09:11:06;;;;;;;18.50;13.93;;;;;;;12.86;nan;95841.97;5078686;28;20232;-69
2023/01/07 09:13:32;;;;;;;21.98;14.25;;;;;;;12.86;nan;95837.69;5080792;28;20217;-72
2023/01/07 09:15:59;;;;;;;18.75;13.30;;;;;;;13.09;nan;95833.59;5080742;28;20270;-60
2023/01/07 09:18:28;;;;;;;24.85;13.80;;;;;;;13.24;nan;95828.03;5079421;28;20209;-61
2023/01/07 09:20:54;;;;;;;20.20;12.38;;;;;;;13.36;nan;95835.31;5079439;28;20219;-60
2023/01/07 09:23:21;;;;;;;17.50;12.52;;;;;;;13.51;nan;95821.22;5080239;28;20265;-60
2023/01/07 09:25:48;;;;;;;27.63;14.52;;;;;;;13.74;nan;95820.44;5079986;28;20233;-61
2023/01/07 09:28:15;;;;;;;22.63;14.85;;;;;;;13.76;nan;95813.56;5079305;28;20202;-60
2023/01/07 09:30:41;;;;;;;20.58;14.25;;;;;;;13.82;nan;95810.81;5079572;28;20212;-60
2023/01/07 09:33:08;;;;;;;31.98;14.00;;;;;;;13.80;nan;95810.03;5081510;28;20947;-60
2023/01/07 09:35:36;;;;;;;18.65;13.38;;;;;;;13.79;nan;95806.63;5078716;28;20255;-59
2023/01/07 09:38:04;;;;;;;35.25;20.50;;;;;;;13.80;nan;95792.13;5083125;28;20290;-60
2023/01/07 09:40:36;;;;;;;23.33;14.02;;;;;;;13.85;nan;95791.09;5083691;28;20206;-58
2023/01/07 09:43:08;;;;;;;34.72;17.98;;;;;;;13.77;nan;95787.97;5083612;28;20229;-59
2023/01/07 09:45:40;;;;;;;26.38;16.13;;;;;;;13.44;nan;95774.59;5084343;28;20243;-58
2023/01/07 09:48:14;;;;;;;20.25;13.85;;;;;;;13.16;nan;95774.69;5085730;28;20194;-58
2023/01/07 09:50:50;;;;;;;22.73;15.18;;;;;;;12.97;nan;95767.63;5085195;28;20281;-59
2023/01/07 09:53:22;;;;;;;23.05;13.05;;;;;;;12.88;nan;95758.53;5084575;28;20204;-58
2023/01/07 09:55:52;;;;;;;22.98;13.77;;;;;;;13.03;nan;95759.78;5084328;28;20200;-59
2023/01/07 09:58:21;;;;;;;17.08;12.30;;;;;;;13.11;nan;95755.28;5083020;28;20608;-59
2023/01/07 10:00:57;;;;;;;19.00;11.57;;;;;;;13.22;nan;95758.34;5084869;28;20201;-59
2023/01/07 10:03:36;;;;;;;18.45;11.30;;;;;;;13.23;nan;95745.53;5084498;28;20225;-59
2023/01/07 10:06:11;;;;;;;12.30;9.70;;;;;;;13.34;nan;95741.78;5084135;28;20205;-59
2023/01/07 10:08:48;;;;;;;18.83;11.48;;;;;;;13.64;nan;95730.50;5083878;28;20209;-59
2023/01/07 10:11:30;;;;;;;17.75;11.05;;;;;;;13.80;nan;95730.81;5083987;28;20270;-61
2023/01/07 10:14:29;;;;;;;21.52;13.32;;;;;;;13.87;nan;95727.13;5083811;28;20244;-59
2023/01/07 10:17:02;;;;;;;12.65;10.02;;;;;;;13.98;nan;95724.22;5084260;28;20221;-60
2023/01/07 10:19:39;;;;;;;19.38;11.98;;;;;;;13.74;nan;95726.75;5084412;28;20209;-58
2023/01/07 10:22:19;;;;;;;19.85;11.02;;;;;;;13.76;nan;95714.78;5083359;28;20202;-59
2023/01/07 10:24:50;;;;;;;17.17;10.55;;;;;;;13.86;nan;95710.16;5083189;28;20562;-59
2023/01/07 10:27:28;;;;;;;15.18;9.90;;;;;;;13.79;nan;95708.72;5084140;28;21138;-59
2023/01/07 10:29:58;;;;;;;18.48;10.15;;;;;;;13.59;nan;95710.25;5050781;28;22043;-69
2023/01/07 10:32:32;;;;;;;15.20;8.55;;;;;;;13.62;nan;95701.63;5051508;28;20657;-70
2023/01/07 10:35:01;;;;;;;14.13;10.13;;;;;;;13.71;nan;95695.38;5052144;28;22193;-70
2023/01/07 10:37:31;;;;;;;15.55;12.65;;;;;;;13.76;nan;95689.22;5054639;28;20212;-67
2023/01/07 10:40:19;;;;;;;18.23;10.95;;;;;;;13.67;nan;95684.44;5053647;28;20210;-67
2023/01/07 10:42:53;;;;;;;17.80;10.98;;;;;;;13.58;nan;95683.06;5053761;28;20205;-68
2023/01/07 10:45:38;;;;;;;17.60;11.07;;;;;;;13.66;nan;95676.81;5053075;28;20205;-68
2023/01/07 10:48:26;;;;;;;17.40;11.20;;;;;;;13.81;nan;95677.13;5053906;28;20198;-66
2023/01/07 10:51:06;;;;;;;14.20;9.68;;;;;;;13.78;nan;95672.13;5045687;28;20232;-68
2023/01/07 10:53:48;;;;;;;14.65;9.27;;;;;;;13.80;nan;95665.25;5054462;28;20205;-67
2023/01/07 10:56:26;;;;;;;11.57;9.07;;;;;;;13.89;nan;95657.22;5052751;28;20258;-68
2023/01/07 10:58:53;;;;;;;16.90;9.60;;;;;;;14.04;nan;95653.28;5052506;28;20220;-68
2023/01/07 11:01:25;;;;;;;16.25;8.05;;;;;;;13.82;nan;95644.75;5052412;28;20481;-67
2023/01/07 11:03:54;;;;;;;10.20;6.75;;;;;;;13.52;nan;95650.06;5055586;28;20224;-67
2023/01/07 11:06:33;;;;;;;8.07;6.18;;;;;;;13.59;nan;95646.41;5054145;28;20704;-67
2023/01/07 11:09:04;;;;;;;9.55;7.03;;;;;;;13.69;nan;95644.34;5053085;28;20256;-67
2023/01/07 11:11:32;;;;;;;7.07;5.45;;;;;;;13.68;nan;95629.91;5050501;28;20662;-68
2023/01/07 11:14:02;;;;;;;5.18;4.78;;;;;;;13.76;nan;95633.03;5052064;28;20709;-66
2023/01/07 11:16:35;;;;;;;11.07;8.30;;;;;;;13.54;nan;95610.00;5052493;28;20209;-66
2023/01/07 11:19:05;;;;;;;10.80;6.55;;;;;;;13.58;nan;95633.69;5054444;28;20202;-69
2023/01/07 11:21:35;;;;;;;8.82;4.95;;;;;;;13.68;nan;95624.81;5052642;28;20209;-69
2023/01/07 11:24:30;;;;;;;5.68;3.83;;;;;;;13.78;nan;95620.19;5055387;28;20221;-68
2023/01/07 11:27:04;;;;;;;4.10;2.70;;;;;;;13.77;nan;95613.41;5054228;28;20224;-70
2023/01/07 11:29:37;;;;;;;3.40;3.10;;;;;;;13.66;nan;95612.97;5053356;28;20570;-69
2023/01/07 11:32:05;;;;;;;3.63;3.33;;;;;;;13.72;nan;95603.38;5051992;28;20197;-68
2023/01/07 11:34:35;;;;;;;5.18;4.47;;;;;;;13.80;nan;95603.09;5052312;28;20206;-69
2023/01/07 11:37:02;;;;;;;5.38;3.53;;;;;;;13.81;nan;95600.47;5050734;28;20294;-68
2023/01/07 11:39:33;;;;;;;4.38;3.90;;;;;;;13.74;nan;95595.66;5053383;28;20206;-68
2023/01/07 11:42:37;;;;;;;5.85;4.10;;;;;;;13.86;nan;95597.72;5035392;28;20225;-68
2023/01/07 11:45:07;;;;;;;4.88;3.20;;;;;;;13.88;nan;95593.41;5053080;28;20260;-68
2023/01/07 11:47:33;;;;;;;3.83;3.50;;;;;;;13.88;nan;95586.56;5053507;28;20205;-67
2023/01/07 11:50:00;;;;;;;4.90;3.10;;;;;;;13.77;nan;95583.59;5053671;28;20201;-70
2023/01/07 11:52:27;;;;;;;3.25;2.95;;;;;;;13.81;nan;95579.22;5052375;28;20205;-67
2023/01/07 11:54:55;;;;;;;5.00;3.22;;;;;;;13.73;nan;95578.66;5052863;28;20205;-68